21:12
Airports
History
Links
Donate
Help keep this website running!
PayPal
Bitcoin
This page is community maintained. The information is intended for PC simulator navigation or reference.
Always use approved charts for navigation.
SC57
Creech Aviation Facility
Creech Aviation Facility (SC57)
Wedgewood, South Carolina, United States (29168)
4
Lat/Lng:33° 53' 3.56" N / 80° 29' 41.3" W
33.884323 / -80.494806
Elevation:178'ft / 54mMSL
ID / ICAO:SC57
Runways:1
Longest:(09-27) 579.4m / 1,901ft Grass
Distance To
Airport ID:
Nearby VORs <50NM
Nearby NDBs
Nearby WeatherUpdated 08-20-17 20:58 GMT
Nearby weather at KSSC, Shaw Afb located 6.3 nautical miles from SC57
Altimeter: 30.01
Visibility: 10.0 statute miles
Wind: 7 knots (120°)
Temp: 34°c 93°f
Humidity: 41.3%

METAR: KSSC 202058Z AUTO 12007KT 10SM SCT060 34/19 A3001 RMK AO2 SLP161 60000 T03400194 57011 $

(Powered by phpweather)
Runway 09 / 27
Dimensions:579.4 x 30.5m 1901' x 100'ft
Surface:Grass
Runway 09 [A]Runway 27 [B]
Heading:085°TH 265°TH
Lat:
Lng:
33° 53' 2.75"N
80° 29' 52.56"W
33° 53' 4.38"N
80° 29' 30.05"W
User Notes and Comments
Google Map
Nearby Airports
(R) Shaw Afb 6.3 NM
KSSC (WX) NNE 12°
(U) Sumter 10.8 NM
KSMS NE 45°
(R) El Porvenir Airpark 17.2 NM
SC44 N 349°
4 St Matthews 17.7 NM
6J3 SW 220°
(R) Mc Entire Jngb 17.7 NM
KMMT (WX) W 278°
4 Dabbs 20.3 NM
6J5 E 84°
(R) Palmetto Air Plantation 20.9 NM
SC41 SE 136°
VFR Chart
Flight Planning at SkyVector.com